sensor_id;sensor_type;location;lat;lon;timestamp;temperature;humidity
29775;DHT22;16676;51.202;6.774;2024-01-07T00:02:10;18.70;81.40
29775;DHT22;16676;51.202;6.774;2024-01-07T00:06:12;18.70;81.50
29775;DHT22;16676;51.202;6.774;2024-01-07T00:10:14;18.70;81.80
29775;DHT22;16676;51.202;6.774;2024-01-07T00:14:17;18.60;82.10
29775;DHT22;16676;51.202;6.774;2024-01-07T00:18:19;18.60;82.00
29775;DHT22;16676;51.202;6.774;2024-01-07T00:22:21;18.60;82.40
29775;DHT22;16676;51.202;6.774;2024-01-07T00:26:23;18.50;82.30
29775;DHT22;16676;51.202;6.774;2024-01-07T00:30:26;18.50;82.50
29775;DHT22;16676;51.202;6.774;2024-01-07T00:34:28;18.50;82.70
29775;DHT22;16676;51.202;6.774;2024-01-07T00:38:30;18.50;82.80
29775;DHT22;16676;51.202;6.774;2024-01-07T00:42:32;18.50;82.80
29775;DHT22;16676;51.202;6.774;2024-01-07T00:46:35;18.40;83.70
29775;DHT22;16676;51.202;6.774;2024-01-07T00:50:37;18.40;83.60
29775;DHT22;16676;51.202;6.774;2024-01-07T00:54:38;18.40;84.00
29775;DHT22;16676;51.202;6.774;2024-01-07T00:58:40;18.30;84.00
29775;DHT22;16676;51.202;6.774;2024-01-07T01:02:44;18.30;84.30
29775;DHT22;16676;51.202;6.774;2024-01-07T01:06:45;18.30;84.10
29775;DHT22;16676;51.202;6.774;2024-01-07T01:10:47;18.30;83.80
29775;DHT22;16676;51.202;6.774;2024-01-07T01:14:49;18.30;84.10
29775;DHT22;16676;51.202;6.774;2024-01-07T01:18:52;18.20;84.10
29775;DHT22;16676;51.202;6.774;2024-01-07T01:22:54;18.20;83.90
29775;DHT22;16676;51.202;6.774;2024-01-07T01:26:56;18.20;83.90
29775;DHT22;16676;51.202;6.774;2024-01-07T01:30:58;18.20;84.40
29775;DHT22;16676;51.202;6.774;2024-01-07T01:35:02;18.10;83.70
29775;DHT22;16676;51.202;6.774;2024-01-07T01:39:04;18.20;84.00
29775;DHT22;16676;51.202;6.774;2024-01-07T01:43:05;18.10;84.10
29775;DHT22;16676;51.202;6.774;2024-01-07T01:47:08;18.10;84.10
29775;DHT22;16676;51.202;6.774;2024-01-07T01:51:11;18.10;84.20
29775;DHT22;16676;51.202;6.774;2024-01-07T01:55:13;18.10;84.00
29775;DHT22;16676;51.202;6.774;2024-01-07T01:59:15;18.10;84.40
29775;DHT22;16676;51.202;6.774;2024-01-07T02:03:18;18.00;84.10
29775;DHT22;16676;51.202;6.774;2024-01-07T02:07:22;18.00;84.30
29775;DHT22;16676;51.202;6.774;2024-01-07T02:11:23;18.00;83.90
29775;DHT22;16676;51.202;6.774;2024-01-07T02:15:25;18.00;84.30
29775;DHT22;16676;51.202;6.774;2024-01-07T02:19:27;18.00;84.60
29775;DHT22;16676;51.202;6.774;2024-01-07T02:23:30;17.90;84.10
29775;DHT22;16676;51.202;6.774;2024-01-07T02:27:34;17.90;84.50
29775;DHT22;16676;51.202;6.774;2024-01-07T02:31:36;17.90;84.40
29775;DHT22;16676;51.202;6.774;2024-01-07T02:35:38;17.90;84.70
29775;DHT22;16676;51.202;6.774;2024-01-07T02:39:39;17.90;84.80
29775;DHT22;16676;51.202;6.774;2024-01-07T02:43:43;17.90;85.10
29775;DHT22;16676;51.202;6.774;2024-01-07T02:47:45;17.80;85.40
29775;DHT22;16676;51.202;6.774;2024-01-07T02:51:47;17.80;85.00
29775;DHT22;16676;51.202;6.774;2024-01-07T02:55:50;17.80;85.00
29775;DHT22;16676;51.202;6.774;2024-01-07T02:59:53;17.80;85.30
29775;DHT22;16676;51.202;6.774;2024-01-07T03:03:55;17.80;85.50
29775;DHT22;16676;51.202;6.774;2024-01-07T03:07:57;17.80;85.10
29775;DHT22;16676;51.202;6.774;2024-01-07T03:11:58;17.70;85.60
29775;DHT22;16676;51.202;6.774;2024-01-07T03:16:02;17.70;85.20
29775;DHT22;16676;51.202;6.774;2024-01-07T03:20:04;17.70;85.80
29775;DHT22;16676;51.202;6.774;2024-01-07T03:24:07;17.70;85.10
29775;DHT22;16676;51.202;6.774;2024-01-07T03:28:08;17.70;86.40
29775;DHT22;16676;51.202;6.774;2024-01-07T03:32:12;17.70;85.60
29775;DHT22;16676;51.202;6.774;2024-01-07T03:36:14;17.70;86.00
29775;DHT22;16676;51.202;6.774;2024-01-07T03:40:16;17.60;85.90
29775;DHT22;16676;51.202;6.774;2024-01-07T03:44:18;17.60;85.90
29775;DHT22;16676;51.202;6.774;2024-01-07T03:48:21;17.60;85.90
29775;DHT22;16676;51.202;6.774;2024-01-07T03:52:23;17.60;85.80
29775;DHT22;16676;51.202;6.774;2024-01-07T03:56:25;17.60;86.00
29775;DHT22;16676;51.202;6.774;2024-01-07T04:00:26;17.60;85.60
29775;DHT22;16676;51.202;6.774;2024-01-07T04:04:30;17.60;86.20
29775;DHT22;16676;51.202;6.774;2024-01-07T04:08:32;17.60;86.80
29775;DHT22;16676;51.202;6.774;2024-01-07T04:12:34;17.50;85.40
29775;DHT22;16676;51.202;6.774;2024-01-07T04:16:36;17.50;85.30
29775;DHT22;16676;51.202;6.774;2024-01-07T04:20:39;17.40;85.90
29775;DHT22;16676;51.202;6.774;2024-01-07T04:24:41;17.40;86.10
29775;DHT22;16676;51.202;6.774;2024-01-07T04:28:43;17.50;86.00
29775;DHT22;16676;51.202;6.774;2024-01-07T04:32:45;17.50;85.70
29775;DHT22;16676;51.202;6.774;2024-01-07T04:36:48;17.60;85.70
29775;DHT22;16676;51.202;6.774;2024-01-07T04:40:50;17.60;85.60
29775;DHT22;16676;51.202;6.774;2024-01-07T04:44:52;17.60;85.60
29775;DHT22;16676;51.202;6.774;2024-01-07T04:48:54;17.70;85.90
29775;DHT22;16676;51.202;6.774;2024-01-07T04:52:57;17.80;87.50
29775;DHT22;16676;51.202;6.774;2024-01-07T04:56:59;18.10;87.60
29775;DHT22;16676;51.202;6.774;2024-01-07T05:01:01;18.30;86.50
29775;DHT22;16676;51.202;6.774;2024-01-07T05:05:03;18.50;85.50
29775;DHT22;16676;51.202;6.774;2024-01-07T05:09:07;18.70;84.70
29775;DHT22;16676;51.202;6.774;2024-01-07T05:13:09;18.90;83.80
29775;DHT22;16676;51.202;6.774;2024-01-07T05:17:11;19.00;83.20
29775;DHT22;16676;51.202;6.774;2024-01-07T05:21:13;19.10;82.40
29775;DHT22;16676;51.202;6.774;2024-01-07T05:25:16;19.10;82.20
29775;DHT22;16676;51.202;6.774;2024-01-07T05:29:18;19.10;81.80
29775;DHT22;16676;51.202;6.774;2024-01-07T05:33:20;19.20;82.00
29775;DHT22;16676;51.202;6.774;2024-01-07T05:37:22;19.20;81.50
29775;DHT22;16676;51.202;6.774;2024-01-07T05:41:25;19.10;81.30
29775;DHT22;16676;51.202;6.774;2024-01-07T05:45:27;19.20;81.90
29775;DHT22;16676;51.202;6.774;2024-01-07T05:49:29;19.20;81.70
29775;DHT22;16676;51.202;6.774;2024-01-07T05:53:31;19.10;82.00
29775;DHT22;16676;51.202;6.774;2024-01-07T05:57:34;19.10;81.80
29775;DHT22;16676;51.202;6.774;2024-01-07T06:01:36;19.10;81.80
29775;DHT22;16676;51.202;6.774;2024-01-07T06:05:38;19.10;81.80
29775;DHT22;16676;51.202;6.774;2024-01-07T06:09:40;19.10;82.00
29775;DHT22;16676;51.202;6.774;2024-01-07T06:13:43;19.10;81.50
29775;DHT22;16676;51.202;6.774;2024-01-07T06:17:45;19.00;81.60
29775;DHT22;16676;51.202;6.774;2024-01-07T06:21:49;19.10;82.00
29775;DHT22;16676;51.202;6.774;2024-01-07T06:25:51;19.00;81.40
29775;DHT22;16676;51.202;6.774;2024-01-07T06:29:54;19.00;81.90
29775;DHT22;16676;51.202;6.774;2024-01-07T06:33:56;18.90;82.10
29775;DHT22;16676;51.202;6.774;2024-01-07T06:37:58;18.90;81.60
29775;DHT22;16676;51.202;6.774;2024-01-07T06:42:00;18.90;81.60
29775;DHT22;16676;51.202;6.774;2024-01-07T06:46:03;18.90;82.00
29775;DHT22;16676;51.202;6.774;2024-01-07T06:50:06;18.90;81.70
29775;DHT22;16676;51.202;6.774;2024-01-07T06:54:08;18.90;81.10
29775;DHT22;16676;51.202;6.774;2024-01-07T06:58:10;18.90;81.20
29775;DHT22;16676;51.202;6.774;2024-01-07T07:02:13;18.80;80.90
29775;DHT22;16676;51.202;6.774;2024-01-07T07:06:15;18.80;81.40
29775;DHT22;16676;51.202;6.774;2024-01-07T07:10:17;18.80;80.30
29775;DHT22;16676;51.202;6.774;2024-01-07T07:14:19;18.80;80.20
29775;DHT22;16676;51.202;6.774;2024-01-07T07:18:22;18.80;79.90
29775;DHT22;16676;51.202;6.774;2024-01-07T07:22:25;18.70;80.10
29775;DHT22;16676;51.202;6.774;2024-01-07T07:26:26;18.70;79.80
29775;DHT22;16676;51.202;6.774;2024-01-07T07:30:28;18.70;79.90
29775;DHT22;16676;51.202;6.774;2024-01-07T07:34:32;18.60;80.00
29775;DHT22;16676;51.202;6.774;2024-01-07T07:38:34;18.60;80.10
29775;DHT22;16676;51.202;6.774;2024-01-07T07:42:36;18.60;80.00
29775;DHT22;16676;51.202;6.774;2024-01-07T07:46:38;18.60;80.30
29775;DHT22;16676;51.202;6.774;2024-01-07T07:50:41;18.00;67.20
29775;DHT22;16676;51.202;6.774;2024-01-07T07:54:43;18.00;71.60
29775;DHT22;16676;51.202;6.774;2024-01-07T07:58:45;18.00;72.80
29775;DHT22;16676;51.202;6.774;2024-01-07T08:02:47;18.00;72.70
29775;DHT22;16676;51.202;6.774;2024-01-07T08:06:50;18.00;72.30
29775;DHT22;16676;51.202;6.774;2024-01-07T08:10:53;18.00;72.50
29775;DHT22;16676;51.202;6.774;2024-01-07T08:14:55;17.90;72.70
29775;DHT22;16676;51.202;6.774;2024-01-07T08:18:57;18.00;72.40
29775;DHT22;16676;51.202;6.774;2024-01-07T08:23:00;17.90;71.90
29775;DHT22;16676;51.202;6.774;2024-01-07T08:27:03;17.90;73.00
29775;DHT22;16676;51.202;6.774;2024-01-07T08:31:05;17.70;72.40
29775;DHT22;16676;51.202;6.774;2024-01-07T08:35:08;17.60;74.90
29775;DHT22;16676;51.202;6.774;2024-01-07T08:39:14;17.60;74.70
29775;DHT22;16676;51.202;6.774;2024-01-07T08:43:16;17.60;74.90
29775;DHT22;16676;51.202;6.774;2024-01-07T08:47:18;17.40;75.60
29775;DHT22;16676;51.202;6.774;2024-01-07T08:51:19;17.30;76.20
29775;DHT22;16676;51.202;6.774;2024-01-07T08:55:23;17.40;76.00
29775;DHT22;16676;51.202;6.774;2024-01-07T08:59:25;17.40;75.90
29775;DHT22;16676;51.202;6.774;2024-01-07T09:03:27;17.40;75.90
29775;DHT22;16676;51.202;6.774;2024-01-07T09:07:29;17.40;76.30
29775;DHT22;16676;51.202;6.774;2024-01-07T09:11:32;17.40;76.40
29775;DHT22;16676;51.202;6.774;2024-01-07T09:15:34;17.40;76.50
29775;DHT22;16676;51.202;6.774;2024-01-07T09:19:36;17.40;76.40
29775;DHT22;16676;51.202;6.774;2024-01-07T09:23:39;17.40;76.40
29775;DHT22;16676;51.202;6.774;2024-01-07T09:27:42;17.50;76.30
29775;DHT22;16676;51.202;6.774;2024-01-07T09:31:44;17.40;76.30
29775;DHT22;16676;51.202;6.774;2024-01-07T09:35:47;17.40;76.70
29775;DHT22;16676;51.202;6.774;2024-01-07T09:39:49;17.40;77.10
29775;DHT22;16676;51.202;6.774;2024-01-07T09:43:52;17.40;77.10
29775;DHT22;16676;51.202;6.774;2024-01-07T09:47:55;17.50;77.50
29775;DHT22;16676;51.202;6.774;2024-01-07T09:51:59;17.40;78.20
29775;DHT22;16676;51.202;6.774;2024-01-07T09:56:10;17.50;78.20
29775;DHT22;16676;51.202;6.774;2024-01-07T10:00:15;17.40;78.10
29775;DHT22;16676;51.202;6.774;2024-01-07T10:04:17;17.40;78.40
29775;DHT22;16676;51.202;6.774;2024-01-07T10:08:19;17.40;78.70
29775;DHT22;16676;51.202;6.774;2024-01-07T10:12:22;17.50;78.70
29775;DHT22;16676;51.202;6.774;2024-01-07T10:16:26;17.50;78.90
29775;DHT22;16676;51.202;6.774;2024-01-07T10:20:28;17.50;79.00
29775;DHT22;16676;51.202;6.774;2024-01-07T10:24:37;17.50;79.30
29775;DHT22;16676;51.202;6.774;2024-01-07T10:28:40;17.40;78.70
29775;DHT22;16676;51.202;6.774;2024-01-07T10:32:46;17.40;78.80
29775;DHT22;16676;51.202;6.774;2024-01-07T10:36:48;17.30;79.00
29775;DHT22;16676;51.202;6.774;2024-01-07T10:40:52;17.30;79.90
29775;DHT22;16676;51.202;6.774;2024-01-07T10:44:53;17.30;80.90
29775;DHT22;16676;51.202;6.774;2024-01-07T10:49:00;17.30;80.60
29775;DHT22;16676;51.202;6.774;2024-01-07T10:53:04;17.30;80.10
29775;DHT22;16676;51.202;6.774;2024-01-07T10:57:13;17.30;80.20
29775;DHT22;16676;51.202;6.774;2024-01-07T11:01:19;17.20;80.10
29775;DHT22;16676;51.202;6.774;2024-01-07T11:05:29;17.20;80.00
29775;DHT22;16676;51.202;6.774;2024-01-07T11:09:36;17.20;80.20
29775;DHT22;16676;51.202;6.774;2024-01-07T11:13:39;17.10;80.30
29775;DHT22;16676;51.202;6.774;2024-01-07T11:17:42;17.20;79.70
29775;DHT22;16676;51.202;6.774;2024-01-07T11:21:47;17.30;79.00
29775;DHT22;16676;51.202;6.774;2024-01-07T11:25:49;17.40;79.20
29775;DHT22;16676;51.202;6.774;2024-01-07T11:29:54;17.40;78.20
29775;DHT22;16676;51.202;6.774;2024-01-07T11:33:57;17.30;77.70
29775;DHT22;16676;51.202;6.774;2024-01-07T11:38:00;17.30;76.80
29775;DHT22;16676;51.202;6.774;2024-01-07T11:42:03;17.20;75.70
29775;DHT22;16676;51.202;6.774;2024-01-07T11:46:05;17.20;78.10
29775;DHT22;16676;51.202;6.774;2024-01-07T11:50:07;17.30;81.10
29775;DHT22;16676;51.202;6.774;2024-01-07T11:54:11;17.30;84.30
29775;DHT22;16676;51.202;6.774;2024-01-07T11:58:13;17.50;87.10
29775;DHT22;16676;51.202;6.774;2024-01-07T12:02:15;17.50;89.20
29775;DHT22;16676;51.202;6.774;2024-01-07T12:06:19;17.60;89.90
29775;DHT22;16676;51.202;6.774;2024-01-07T12:10:22;17.60;90.40
29775;DHT22;16676;51.202;6.774;2024-01-07T12:14:24;17.60;90.00
29775;DHT22;16676;51.202;6.774;2024-01-07T12:18:27;17.60;85.40
29775;DHT22;16676;51.202;6.774;2024-01-07T12:22:29;17.60;87.70
29775;DHT22;16676;51.202;6.774;2024-01-07T12:26:32;17.60;89.30
29775;DHT22;16676;51.202;6.774;2024-01-07T12:30:34;17.70;90.40
29775;DHT22;16676;51.202;6.774;2024-01-07T12:34:37;17.70;91.40
29775;DHT22;16676;51.202;6.774;2024-01-07T12:38:39;17.70;91.80
29775;DHT22;16676;51.202;6.774;2024-01-07T12:42:42;17.70;91.80
29775;DHT22;16676;51.202;6.774;2024-01-07T12:46:46;17.70;92.30
29775;DHT22;16676;51.202;6.774;2024-01-07T12:50:49;17.70;90.00
29775;DHT22;16676;51.202;6.774;2024-01-07T12:54:51;17.70;88.20
29775;DHT22;16676;51.202;6.774;2024-01-07T12:58:54;17.60;87.10
29775;DHT22;16676;51.202;6.774;2024-01-07T13:02:56;17.50;86.40
29775;DHT22;16676;51.202;6.774;2024-01-07T13:06:58;17.60;85.80
29775;DHT22;16676;51.202;6.774;2024-01-07T13:11:00;17.50;85.20
29775;DHT22;16676;51.202;6.774;2024-01-07T13:15:03;17.40;85.30
29775;DHT22;16676;51.202;6.774;2024-01-07T13:19:05;17.40;85.00
29775;DHT22;16676;51.202;6.774;2024-01-07T13:23:09;17.40;84.60
29775;DHT22;16676;51.202;6.774;2024-01-07T13:27:11;17.40;84.00
29775;DHT22;16676;51.202;6.774;2024-01-07T13:31:15;17.30;84.30
29775;DHT22;16676;51.202;6.774;2024-01-07T13:35:17;17.30;84.50
29775;DHT22;16676;51.202;6.774;2024-01-07T13:39:19;17.20;84.10
29775;DHT22;16676;51.202;6.774;2024-01-07T13:43:21;17.20;84.20
29775;DHT22;16676;51.202;6.774;2024-01-07T13:47:27;17.20;84.10
29775;DHT22;16676;51.202;6.774;2024-01-07T13:51:29;17.30;83.40
29775;DHT22;16676;51.202;6.774;2024-01-07T13:55:31;17.30;83.40
29775;DHT22;16676;51.202;6.774;2024-01-07T13:59:33;17.30;83.40
29775;DHT22;16676;51.202;6.774;2024-01-07T14:03:36;17.20;82.90
29775;DHT22;16676;51.202;6.774;2024-01-07T14:07:38;17.20;83.00
29775;DHT22;16676;51.202;6.774;2024-01-07T14:11:40;17.20;83.00
29775;DHT22;16676;51.202;6.774;2024-01-07T14:15:42;17.10;82.90
29775;DHT22;16676;51.202;6.774;2024-01-07T14:19:46;17.20;83.60
29775;DHT22;16676;51.202;6.774;2024-01-07T14:23:48;17.40;83.20
29775;DHT22;16676;51.202;6.774;2024-01-07T14:27:50;17.60;82.10
29775;DHT22;16676;51.202;6.774;2024-01-07T14:31:52;17.80;81.00
29775;DHT22;16676;51.202;6.774;2024-01-07T14:35:55;18.00;80.60
29775;DHT22;16676;51.202;6.774;2024-01-07T14:39:57;18.10;79.60
29775;DHT22;16676;51.202;6.774;2024-01-07T14:43:59;18.20;79.00
29775;DHT22;16676;51.202;6.774;2024-01-07T14:48:01;18.30;78.70
29775;DHT22;16676;51.202;6.774;2024-01-07T14:52:05;18.40;78.00
29775;DHT22;16676;51.202;6.774;2024-01-07T14:56:07;18.60;77.60
29775;DHT22;16676;51.202;6.774;2024-01-07T15:00:09;18.70;77.40
29775;DHT22;16676;51.202;6.774;2024-01-07T15:04:11;18.80;77.10
29775;DHT22;16676;51.202;6.774;2024-01-07T15:08:15;18.80;77.30
29775;DHT22;16676;51.202;6.774;2024-01-07T15:12:17;18.90;78.20
29775;DHT22;16676;51.202;6.774;2024-01-07T15:16:19;18.90;77.80
29775;DHT22;16676;51.202;6.774;2024-01-07T15:20:21;18.90;77.80
29775;DHT22;16676;51.202;6.774;2024-01-07T15:24:24;18.90;77.80
29775;DHT22;16676;51.202;6.774;2024-01-07T15:28:27;19.00;78.00
29775;DHT22;16676;51.202;6.774;2024-01-07T15:32:29;18.90;78.30
29775;DHT22;16676;51.202;6.774;2024-01-07T15:36:32;18.90;78.00
29775;DHT22;16676;51.202;6.774;2024-01-07T15:40:35;18.90;78.70
29775;DHT22;16676;51.202;6.774;2024-01-07T15:44:37;18.90;78.20
29775;DHT22;16676;51.202;6.774;2024-01-07T15:48:39;18.90;78.20
29775;DHT22;16676;51.202;6.774;2024-01-07T15:52:42;18.90;78.50
29775;DHT22;16676;51.202;6.774;2024-01-07T15:56:48;18.90;79.00
29775;DHT22;16676;51.202;6.774;2024-01-07T16:00:50;18.90;78.80
29775;DHT22;16676;51.202;6.774;2024-01-07T16:04:52;18.80;78.30
29775;DHT22;16676;51.202;6.774;2024-01-07T16:08:53;18.80;78.90
29775;DHT22;16676;51.202;6.774;2024-01-07T16:12:58;18.80;78.70
29775;DHT22;16676;51.202;6.774;2024-01-07T16:17:00;18.80;79.20
29775;DHT22;16676;51.202;6.774;2024-01-07T16:21:02;18.80;79.60
29775;DHT22;16676;51.202;6.774;2024-01-07T16:25:05;18.70;80.30
29775;DHT22;16676;51.202;6.774;2024-01-07T16:29:09;18.70;78.70
29775;DHT22;16676;51.202;6.774;2024-01-07T16:33:11;18.70;78.60
29775;DHT22;16676;51.202;6.774;2024-01-07T16:37:13;18.70;78.00
29775;DHT22;16676;51.202;6.774;2024-01-07T16:41:15;18.70;78.00
29775;DHT22;16676;51.202;6.774;2024-01-07T16:45:18;18.60;78.20
29775;DHT22;16676;51.202;6.774;2024-01-07T16:49:21;18.60;77.90
29775;DHT22;16676;51.202;6.774;2024-01-07T16:53:23;18.60;77.70
29775;DHT22;16676;51.202;6.774;2024-01-07T16:57:25;18.60;77.80
29775;DHT22;16676;51.202;6.774;2024-01-07T17:01:28;18.50;77.80
29775;DHT22;16676;51.202;6.774;2024-01-07T17:05:30;18.50;77.90
29775;DHT22;16676;51.202;6.774;2024-01-07T17:09:32;18.50;78.00
29775;DHT22;16676;51.202;6.774;2024-01-07T17:13:34;18.40;78.00
29775;DHT22;16676;51.202;6.774;2024-01-07T17:17:39;18.40;77.90
29775;DHT22;16676;51.202;6.774;2024-01-07T17:21:41;18.40;78.20
29775;DHT22;16676;51.202;6.774;2024-01-07T17:25:43;18.40;77.80
29775;DHT22;16676;51.202;6.774;2024-01-07T17:29:45;18.30;77.80
29775;DHT22;16676;51.202;6.774;2024-01-07T17:33:49;18.40;77.80
29775;DHT22;16676;51.202;6.774;2024-01-07T17:37:51;18.30;77.80
29775;DHT22;16676;51.202;6.774;2024-01-07T17:41:53;18.30;77.90
29775;DHT22;16676;51.202;6.774;2024-01-07T17:45:55;18.30;77.80
29775;DHT22;16676;51.202;6.774;2024-01-07T17:49:58;18.20;77.80
29775;DHT22;16676;51.202;6.774;2024-01-07T17:54:00;18.20;78.00
29775;DHT22;16676;51.202;6.774;2024-01-07T17:58:02;18.20;78.20
29775;DHT22;16676;51.202;6.774;2024-01-07T18:02:04;18.10;78.40
29775;DHT22;16676;51.202;6.774;2024-01-07T18:06:08;18.10;78.60
29775;DHT22;16676;51.202;6.774;2024-01-07T18:10:10;18.10;78.60
29775;DHT22;16676;51.202;6.774;2024-01-07T18:14:12;18.00;78.60
29775;DHT22;16676;51.202;6.774;2024-01-07T18:18:16;18.00;78.70
29775;DHT22;16676;51.202;6.774;2024-01-07T18:22:20;18.00;78.90
29775;DHT22;16676;51.202;6.774;2024-01-07T18:26:22;18.00;79.00
29775;DHT22;16676;51.202;6.774;2024-01-07T18:30:24;17.90;79.00
29775;DHT22;16676;51.202;6.774;2024-01-07T18:34:26;18.00;79.00
29775;DHT22;16676;51.202;6.774;2024-01-07T18:38:30;17.90;79.50
29775;DHT22;16676;51.202;6.774;2024-01-07T18:42:32;17.80;81.10
29775;DHT22;16676;51.202;6.774;2024-01-07T18:46:34;17.60;82.90
29775;DHT22;16676;51.202;6.774;2024-01-07T18:50:36;17.40;84.60
29775;DHT22;16676;51.202;6.774;2024-01-07T18:54:40;17.20;86.40
29775;DHT22;16676;51.202;6.774;2024-01-07T18:58:42;17.20;87.50
29775;DHT22;16676;51.202;6.774;2024-01-07T19:02:44;17.20;87.60
29775;DHT22;16676;51.202;6.774;2024-01-07T19:06:46;17.30;87.70
29775;DHT22;16676;51.202;6.774;2024-01-07T19:10:49;17.20;87.90
29775;DHT22;16676;51.202;6.774;2024-01-07T19:14:51;17.20;87.60
29775;DHT22;16676;51.202;6.774;2024-01-07T19:18:53;17.20;87.70
29775;DHT22;16676;51.202;6.774;2024-01-07T19:22:55;17.20;89.10
29775;DHT22;16676;51.202;6.774;2024-01-07T19:26:58;17.30;89.30
29775;DHT22;16676;51.202;6.774;2024-01-07T19:31:01;17.30;89.00
29775;DHT22;16676;51.202;6.774;2024-01-07T19:35:05;17.40;88.80
29775;DHT22;16676;51.202;6.774;2024-01-07T19:39:07;17.30;88.40
29775;DHT22;16676;51.202;6.774;2024-01-07T19:43:10;17.30;87.30
29775;DHT22;16676;51.202;6.774;2024-01-07T19:47:12;17.30;86.80
29775;DHT22;16676;51.202;6.774;2024-01-07T19:51:14;17.30;85.90
29775;DHT22;16676;51.202;6.774;2024-01-07T19:55:16;17.30;86.30
29775;DHT22;16676;51.202;6.774;2024-01-07T19:59:20;17.30;85.30
29775;DHT22;16676;51.202;6.774;2024-01-07T20:03:25;17.30;85.40
29775;DHT22;16676;51.202;6.774;2024-01-07T20:07:27;17.30;84.70
29775;DHT22;16676;51.202;6.774;2024-01-07T20:11:29;17.30;84.30
29775;DHT22;16676;51.202;6.774;2024-01-07T20:15:34;17.30;83.90
29775;DHT22;16676;51.202;6.774;2024-01-07T20:19:37;17.30;83.70
29775;DHT22;16676;51.202;6.774;2024-01-07T20:23:40;17.30;83.50
29775;DHT22;16676;51.202;6.774;2024-01-07T20:27:42;17.30;83.40
29775;DHT22;16676;51.202;6.774;2024-01-07T20:31:45;17.30;83.30
29775;DHT22;16676;51.202;6.774;2024-01-07T20:35:48;17.30;83.10
29775;DHT22;16676;51.202;6.774;2024-01-07T20:39:51;17.30;82.90
29775;DHT22;16676;51.202;6.774;2024-01-07T20:43:52;17.30;82.90
29775;DHT22;16676;51.202;6.774;2024-01-07T20:47:56;17.20;83.10
29775;DHT22;16676;51.202;6.774;2024-01-07T20:51:57;17.20;83.10
29775;DHT22;16676;51.202;6.774;2024-01-07T20:56:01;17.10;83.20
29775;DHT22;16676;51.202;6.774;2024-01-07T21:00:04;17.20;83.50
29775;DHT22;16676;51.202;6.774;2024-01-07T21:04:08;16.80;67.70
29775;DHT22;16676;51.202;6.774;2024-01-07T21:08:10;16.80;73.60
29775;DHT22;16676;51.202;6.774;2024-01-07T21:12:11;17.10;74.30
29775;DHT22;16676;51.202;6.774;2024-01-07T21:16:13;17.50;74.40
29775;DHT22;16676;51.202;6.774;2024-01-07T21:20:17;17.80;74.70
29775;DHT22;16676;51.202;6.774;2024-01-07T21:24:18;18.00;74.40
29775;DHT22;16676;51.202;6.774;2024-01-07T21:28:20;18.30;74.00
29775;DHT22;16676;51.202;6.774;2024-01-07T21:32:23;18.40;73.50
29775;DHT22;16676;51.202;6.774;2024-01-07T21:36:28;18.60;73.50
29775;DHT22;16676;51.202;6.774;2024-01-07T21:40:30;18.70;73.10
29775;DHT22;16676;51.202;6.774;2024-01-07T21:44:31;18.80;72.80
29775;DHT22;16676;51.202;6.774;2024-01-07T21:48:34;18.90;72.60
29775;DHT22;16676;51.202;6.774;2024-01-07T21:52:37;19.00;72.40
29775;DHT22;16676;51.202;6.774;2024-01-07T21:56:40;19.10;72.30
29775;DHT22;16676;51.202;6.774;2024-01-07T22:00:42;19.10;72.00
29775;DHT22;16676;51.202;6.774;2024-01-07T22:04:44;19.20;71.70
29775;DHT22;16676;51.202;6.774;2024-01-07T22:08:48;19.20;71.70
29775;DHT22;16676;51.202;6.774;2024-01-07T22:12:50;19.30;71.20
29775;DHT22;16676;51.202;6.774;2024-01-07T22:16:52;19.30;71.30
29775;DHT22;16676;51.202;6.774;2024-01-07T22:20:54;19.30;71.80
29775;DHT22;16676;51.202;6.774;2024-01-07T22:24:58;19.30;71.20
29775;DHT22;16676;51.202;6.774;2024-01-07T22:28:59;19.30;71.20
29775;DHT22;16676;51.202;6.774;2024-01-07T22:33:01;19.30;70.70
29775;DHT22;16676;51.202;6.774;2024-01-07T22:37:03;19.30;71.00
29775;DHT22;16676;51.202;6.774;2024-01-07T22:41:07;19.30;71.10
29775;DHT22;16676;51.202;6.774;2024-01-07T22:45:09;19.20;71.20
29775;DHT22;16676;51.202;6.774;2024-01-07T22:49:12;19.20;71.10
29775;DHT22;16676;51.202;6.774;2024-01-07T22:53:14;19.20;71.20
29775;DHT22;16676;51.202;6.774;2024-01-07T22:57:17;19.20;71.40
29775;DHT22;16676;51.202;6.774;2024-01-07T23:01:25;19.10;71.40
29775;DHT22;16676;51.202;6.774;2024-01-07T23:05:28;19.10;71.30
29775;DHT22;16676;51.202;6.774;2024-01-07T23:09:30;19.10;71.60
29775;DHT22;16676;51.202;6.774;2024-01-07T23:13:33;19.10;71.30
29775;DHT22;16676;51.202;6.774;2024-01-07T23:17:35;19.00;71.10
29775;DHT22;16676;51.202;6.774;2024-01-07T23:21:38;19.00;71.50
29775;DHT22;16676;51.202;6.774;2024-01-07T23:25:39;19.00;71.70
29775;DHT22;16676;51.202;6.774;2024-01-07T23:29:43;18.90;71.70
29775;DHT22;16676;51.202;6.774;2024-01-07T23:33:45;18.90;71.70
29775;DHT22;16676;51.202;6.774;2024-01-07T23:37:46;18.90;72.60
29775;DHT22;16676;51.202;6.774;2024-01-07T23:41:48;18.80;71.80
29775;DHT22;16676;51.202;6.774;2024-01-07T23:45:51;18.80;71.60
29775;DHT22;16676;51.202;6.774;2024-01-07T23:49:53;18.80;71.90
29775;DHT22;16676;51.202;6.774;2024-01-07T23:53:55;18.80;71.90
29775;DHT22;16676;51.202;6.774;2024-01-07T23:57:57;18.70;72.10
